sensor_id;sensor_type;location;lat;lon;timestamp;temperature;humidity
19044;DHT22;9654;52.302;8.120;2024-01-30T00:01:23;4.90;99.90
19044;DHT22;9654;52.302;8.120;2024-01-30T00:03:50;4.90;99.90
19044;DHT22;9654;52.302;8.120;2024-01-30T00:06:18;4.90;99.90
19044;DHT22;9654;52.302;8.120;2024-01-30T00:08:45;5.00;99.90
19044;DHT22;9654;52.302;8.120;2024-01-30T00:11:14;5.10;99.90
19044;DHT22;9654;52.302;8.120;2024-01-30T00:13:42;5.20;99.90
19044;DHT22;9654;52.302;8.120;2024-01-30T00:16:20;5.30;99.90
19044;DHT22;9654;52.302;8.120;2024-01-30T00:18:47;5.50;99.90
19044;DHT22;9654;52.302;8.120;2024-01-30T00:21:14;5.60;99.90
19044;DHT22;9654;52.302;8.120;2024-01-30T00:23:41;5.60;99.90
19044;DHT22;9654;52.302;8.120;2024-01-30T00:26:08;5.60;99.90
19044;DHT22;9654;52.302;8.120;2024-01-30T00:28:35;5.70;99.90
19044;DHT22;9654;52.302;8.120;2024-01-30T00:31:03;5.70;99.90
19044;DHT22;9654;52.302;8.120;2024-01-30T00:33:30;5.70;99.90
19044;DHT22;9654;52.302;8.120;2024-01-30T00:35:57;5.70;99.90
19044;DHT22;9654;52.302;8.120;2024-01-30T00:38:24;5.70;99.90
19044;DHT22;9654;52.302;8.120;2024-01-30T00:40:51;5.70;99.90
19044;DHT22;9654;52.302;8.120;2024-01-30T00:43:18;5.60;99.90
19044;DHT22;9654;52.302;8.120;2024-01-30T00:45:45;5.50;99.90
19044;DHT22;9654;52.302;8.120;2024-01-30T00:48:13;5.50;99.90
19044;DHT22;9654;52.302;8.120;2024-01-30T00:50:40;5.50;99.90
19044;DHT22;9654;52.302;8.120;2024-01-30T00:53:07;5.40;99.90
19044;DHT22;9654;52.302;8.120;2024-01-30T00:55:34;5.40;99.90
19044;DHT22;9654;52.302;8.120;2024-01-30T00:58:01;5.40;99.90
19044;DHT22;9654;52.302;8.120;2024-01-30T01:00:28;5.40;99.90
19044;DHT22;9654;52.302;8.120;2024-01-30T01:02:56;5.40;99.90
19044;DHT22;9654;52.302;8.120;2024-01-30T01:05:24;5.30;99.90
19044;DHT22;9654;52.302;8.120;2024-01-30T01:07:51;5.20;99.90
19044;DHT22;9654;52.302;8.120;2024-01-30T01:10:18;5.10;99.90
19044;DHT22;9654;52.302;8.120;2024-01-30T01:12:46;5.00;99.90
19044;DHT22;9654;52.302;8.120;2024-01-30T01:15:13;4.90;99.90
19044;DHT22;9654;52.302;8.120;2024-01-30T01:17:40;4.80;99.90
19044;DHT22;9654;52.302;8.120;2024-01-30T01:20:08;4.70;99.90
19044;DHT22;9654;52.302;8.120;2024-01-30T01:22:38;4.70;99.90
19044;DHT22;9654;52.302;8.120;2024-01-30T01:25:06;4.60;99.90
19044;DHT22;9654;52.302;8.120;2024-01-30T01:27:34;4.60;99.90
19044;DHT22;9654;52.302;8.120;2024-01-30T01:30:07;4.60;99.90
19044;DHT22;9654;52.302;8.120;2024-01-30T01:32:35;4.60;99.90
19044;DHT22;9654;52.302;8.120;2024-01-30T01:35:02;4.60;99.90
19044;DHT22;9654;52.302;8.120;2024-01-30T01:37:31;4.70;99.90
19044;DHT22;9654;52.302;8.120;2024-01-30T01:40:00;4.70;99.90
19044;DHT22;9654;52.302;8.120;2024-01-30T01:42:27;4.80;99.90
19044;DHT22;9654;52.302;8.120;2024-01-30T01:44:54;4.80;99.90
19044;DHT22;9654;52.302;8.120;2024-01-30T01:47:21;4.70;99.90
19044;DHT22;9654;52.302;8.120;2024-01-30T01:49:48;4.60;99.90
19044;DHT22;9654;52.302;8.120;2024-01-30T01:52:15;4.50;99.90
19044;DHT22;9654;52.302;8.120;2024-01-30T01:54:42;4.30;99.90
19044;DHT22;9654;52.302;8.120;2024-01-30T01:57:10;4.30;99.90
19044;DHT22;9654;52.302;8.120;2024-01-30T01:59:37;4.20;99.90
19044;DHT22;9654;52.302;8.120;2024-01-30T02:02:04;4.10;99.90
19044;DHT22;9654;52.302;8.120;2024-01-30T02:04:33;4.10;99.90
19044;DHT22;9654;52.302;8.120;2024-01-30T02:07:00;4.00;99.90
19044;DHT22;9654;52.302;8.120;2024-01-30T02:09:27;4.00;99.90
19044;DHT22;9654;52.302;8.120;2024-01-30T02:11:54;4.00;99.90
19044;DHT22;9654;52.302;8.120;2024-01-30T02:14:23;4.00;99.90
19044;DHT22;9654;52.302;8.120;2024-01-30T02:16:50;4.00;99.90
19044;DHT22;9654;52.302;8.120;2024-01-30T02:19:16;4.00;99.90
19044;DHT22;9654;52.302;8.120;2024-01-30T02:21:45;4.00;99.90
19044;DHT22;9654;52.302;8.120;2024-01-30T02:24:12;4.10;99.90
19044;DHT22;9654;52.302;8.120;2024-01-30T02:26:39;4.20;99.90
19044;DHT22;9654;52.302;8.120;2024-01-30T02:29:06;4.20;99.90
19044;DHT22;9654;52.302;8.120;2024-01-30T02:31:33;4.30;99.90
19044;DHT22;9654;52.302;8.120;2024-01-30T02:34:00;4.40;99.90
19044;DHT22;9654;52.302;8.120;2024-01-30T02:36:26;4.50;99.90
19044;DHT22;9654;52.302;8.120;2024-01-30T02:38:55;4.60;99.90
19044;DHT22;9654;52.302;8.120;2024-01-30T02:41:22;4.70;99.90
19044;DHT22;9654;52.302;8.120;2024-01-30T02:43:48;4.90;99.90
19044;DHT22;9654;52.302;8.120;2024-01-30T02:46:15;5.10;99.90
19044;DHT22;9654;52.302;8.120;2024-01-30T02:48:42;5.10;99.90
19044;DHT22;9654;52.302;8.120;2024-01-30T02:51:09;5.10;99.90
19044;DHT22;9654;52.302;8.120;2024-01-30T02:53:36;5.20;99.90
19044;DHT22;9654;52.302;8.120;2024-01-30T02:56:05;5.30;99.90
19044;DHT22;9654;52.302;8.120;2024-01-30T02:58:35;5.40;99.90
19044;DHT22;9654;52.302;8.120;2024-01-30T03:01:02;5.50;99.90
19044;DHT22;9654;52.302;8.120;2024-01-30T03:03:29;5.50;99.90
19044;DHT22;9654;52.302;8.120;2024-01-30T03:05:56;5.50;99.90
19044;DHT22;9654;52.302;8.120;2024-01-30T03:08:23;5.60;99.90
19044;DHT22;9654;52.302;8.120;2024-01-30T03:10:50;5.60;99.90
19044;DHT22;9654;52.302;8.120;2024-01-30T03:13:18;5.70;99.90
19044;DHT22;9654;52.302;8.120;2024-01-30T03:15:45;5.80;99.90
19044;DHT22;9654;52.302;8.120;2024-01-30T03:18:11;5.80;99.90
19044;DHT22;9654;52.302;8.120;2024-01-30T03:20:38;5.80;99.90
19044;DHT22;9654;52.302;8.120;2024-01-30T03:23:05;5.80;99.90
19044;DHT22;9654;52.302;8.120;2024-01-30T03:25:32;5.80;99.90
19044;DHT22;9654;52.302;8.120;2024-01-30T03:27:59;5.80;99.90
19044;DHT22;9654;52.302;8.120;2024-01-30T03:30:27;5.90;99.90
19044;DHT22;9654;52.302;8.120;2024-01-30T03:32:54;5.90;99.90
19044;DHT22;9654;52.302;8.120;2024-01-30T03:35:21;5.90;99.90
19044;DHT22;9654;52.302;8.120;2024-01-30T03:37:48;5.90;99.90
19044;DHT22;9654;52.302;8.120;2024-01-30T03:40:15;5.90;99.90
19044;DHT22;9654;52.302;8.120;2024-01-30T03:42:42;6.00;99.90
19044;DHT22;9654;52.302;8.120;2024-01-30T03:45:09;6.00;99.90
19044;DHT22;9654;52.302;8.120;2024-01-30T03:47:37;6.10;99.90
19044;DHT22;9654;52.302;8.120;2024-01-30T03:50:05;6.10;99.90
19044;DHT22;9654;52.302;8.120;2024-01-30T03:52:32;6.10;99.90
19044;DHT22;9654;52.302;8.120;2024-01-30T03:54:59;6.10;99.90
19044;DHT22;9654;52.302;8.120;2024-01-30T03:57:26;6.10;99.90
19044;DHT22;9654;52.302;8.120;2024-01-30T03:59:53;6.10;99.90
19044;DHT22;9654;52.302;8.120;2024-01-30T04:02:20;6.10;99.90
19044;DHT22;9654;52.302;8.120;2024-01-30T04:04:48;6.10;99.90
19044;DHT22;9654;52.302;8.120;2024-01-30T04:07:15;6.20;99.90
19044;DHT22;9654;52.302;8.120;2024-01-30T04:09:42;6.10;99.90
19044;DHT22;9654;52.302;8.120;2024-01-30T04:12:09;6.10;99.90
19044;DHT22;9654;52.302;8.120;2024-01-30T04:14:37;6.10;99.90
19044;DHT22;9654;52.302;8.120;2024-01-30T04:17:04;6.10;99.90
19044;DHT22;9654;52.302;8.120;2024-01-30T04:19:31;6.20;99.90
19044;DHT22;9654;52.302;8.120;2024-01-30T04:21:59;6.30;99.90
19044;DHT22;9654;52.302;8.120;2024-01-30T04:24:26;6.50;99.90
19044;DHT22;9654;52.302;8.120;2024-01-30T04:26:53;6.70;99.90
19044;DHT22;9654;52.302;8.120;2024-01-30T04:29:20;6.80;99.90
19044;DHT22;9654;52.302;8.120;2024-01-30T04:31:48;7.10;99.90
19044;DHT22;9654;52.302;8.120;2024-01-30T04:34:14;7.20;99.90
19044;DHT22;9654;52.302;8.120;2024-01-30T04:36:44;7.30;99.90
19044;DHT22;9654;52.302;8.120;2024-01-30T04:39:12;7.40;99.90
19044;DHT22;9654;52.302;8.120;2024-01-30T04:41:39;7.40;99.90
19044;DHT22;9654;52.302;8.120;2024-01-30T04:44:06;7.40;99.90
19044;DHT22;9654;52.302;8.120;2024-01-30T04:46:33;7.50;99.90
19044;DHT22;9654;52.302;8.120;2024-01-30T04:49:00;7.50;99.90
19044;DHT22;9654;52.302;8.120;2024-01-30T04:51:27;7.50;99.90
19044;DHT22;9654;52.302;8.120;2024-01-30T04:53:54;7.50;99.90
19044;DHT22;9654;52.302;8.120;2024-01-30T04:56:22;7.50;99.90
19044;DHT22;9654;52.302;8.120;2024-01-30T04:58:49;7.40;99.90
19044;DHT22;9654;52.302;8.120;2024-01-30T05:01:17;7.40;99.90
19044;DHT22;9654;52.302;8.120;2024-01-30T05:03:44;7.40;99.90
19044;DHT22;9654;52.302;8.120;2024-01-30T05:06:11;7.50;99.90
19044;DHT22;9654;52.302;8.120;2024-01-30T05:08:38;7.40;99.90
19044;DHT22;9654;52.302;8.120;2024-01-30T05:11:05;7.40;99.90
19044;DHT22;9654;52.302;8.120;2024-01-30T05:13:34;7.40;99.90
19044;DHT22;9654;52.302;8.120;2024-01-30T05:16:02;7.40;99.90
19044;DHT22;9654;52.302;8.120;2024-01-30T05:18:29;7.40;99.90
19044;DHT22;9654;52.302;8.120;2024-01-30T05:20:56;7.40;99.90
19044;DHT22;9654;52.302;8.120;2024-01-30T05:23:23;7.40;99.90
19044;DHT22;9654;52.302;8.120;2024-01-30T05:25:50;7.40;99.90
19044;DHT22;9654;52.302;8.120;2024-01-30T05:28:18;7.50;99.90
19044;DHT22;9654;52.302;8.120;2024-01-30T05:30:46;7.50;99.90
19044;DHT22;9654;52.302;8.120;2024-01-30T05:33:13;7.50;99.90
19044;DHT22;9654;52.302;8.120;2024-01-30T05:35:40;7.50;99.90
19044;DHT22;9654;52.302;8.120;2024-01-30T05:38:07;7.50;99.90
19044;DHT22;9654;52.302;8.120;2024-01-30T05:40:34;7.60;99.90
19044;DHT22;9654;52.302;8.120;2024-01-30T05:43:01;7.60;99.90
19044;DHT22;9654;52.302;8.120;2024-01-30T05:45:28;7.60;99.90
19044;DHT22;9654;52.302;8.120;2024-01-30T05:47:56;7.70;99.90
19044;DHT22;9654;52.302;8.120;2024-01-30T05:50:23;7.70;99.90
19044;DHT22;9654;52.302;8.120;2024-01-30T05:52:51;7.70;99.90
19044;DHT22;9654;52.302;8.120;2024-01-30T05:55:18;7.70;99.90
19044;DHT22;9654;52.302;8.120;2024-01-30T05:57:45;7.70;99.90
19044;DHT22;9654;52.302;8.120;2024-01-30T06:00:13;7.80;99.90
19044;DHT22;9654;52.302;8.120;2024-01-30T06:02:40;7.80;99.90
19044;DHT22;9654;52.302;8.120;2024-01-30T06:05:09;7.70;99.90
19044;DHT22;9654;52.302;8.120;2024-01-30T06:07:35;7.70;99.90
19044;DHT22;9654;52.302;8.120;2024-01-30T06:10:03;7.80;99.90
19044;DHT22;9654;52.302;8.120;2024-01-30T06:12:30;7.70;99.90
19044;DHT22;9654;52.302;8.120;2024-01-30T06:14:57;7.80;99.90
19044;DHT22;9654;52.302;8.120;2024-01-30T06:17:24;7.70;99.90
19044;DHT22;9654;52.302;8.120;2024-01-30T06:19:51;7.70;99.90
19044;DHT22;9654;52.302;8.120;2024-01-30T06:22:19;7.70;99.90
19044;DHT22;9654;52.302;8.120;2024-01-30T06:24:46;7.70;99.90
19044;DHT22;9654;52.302;8.120;2024-01-30T06:27:14;7.70;99.90
19044;DHT22;9654;52.302;8.120;2024-01-30T06:29:43;7.70;99.90
19044;DHT22;9654;52.302;8.120;2024-01-30T06:32:09;7.70;99.90
19044;DHT22;9654;52.302;8.120;2024-01-30T06:34:36;7.80;99.90
19044;DHT22;9654;52.302;8.120;2024-01-30T06:37:04;7.80;99.90
19044;DHT22;9654;52.302;8.120;2024-01-30T06:39:32;7.80;99.90
19044;DHT22;9654;52.302;8.120;2024-01-30T06:41:59;7.80;99.90
19044;DHT22;9654;52.302;8.120;2024-01-30T06:44:26;7.80;99.90
19044;DHT22;9654;52.302;8.120;2024-01-30T06:46:53;7.90;99.90
19044;DHT22;9654;52.302;8.120;2024-01-30T06:49:20;7.90;99.90
19044;DHT22;9654;52.302;8.120;2024-01-30T06:51:48;8.00;99.90
19044;DHT22;9654;52.302;8.120;2024-01-30T06:54:15;8.10;99.90
19044;DHT22;9654;52.302;8.120;2024-01-30T06:56:43;8.10;99.90
19044;DHT22;9654;52.302;8.120;2024-01-30T06:59:10;8.20;99.90
19044;DHT22;9654;52.302;8.120;2024-01-30T07:01:37;8.20;99.90
19044;DHT22;9654;52.302;8.120;2024-01-30T07:04:04;8.20;99.90
19044;DHT22;9654;52.302;8.120;2024-01-30T07:06:30;8.20;99.90
19044;DHT22;9654;52.302;8.120;2024-01-30T07:08:57;8.10;99.90
19044;DHT22;9654;52.302;8.120;2024-01-30T07:11:24;8.10;99.90
19044;DHT22;9654;52.302;8.120;2024-01-30T07:13:54;8.10;99.90
19044;DHT22;9654;52.302;8.120;2024-01-30T07:16:21;8.10;99.90
19044;DHT22;9654;52.302;8.120;2024-01-30T07:18:48;8.10;99.90
19044;DHT22;9654;52.302;8.120;2024-01-30T07:21:15;8.10;99.90
19044;DHT22;9654;52.302;8.120;2024-01-30T07:23:42;8.10;99.90
19044;DHT22;9654;52.302;8.120;2024-01-30T07:26:09;8.10;99.90
19044;DHT22;9654;52.302;8.120;2024-01-30T07:28:36;8.10;99.90
19044;DHT22;9654;52.302;8.120;2024-01-30T07:31:05;8.10;99.90
19044;DHT22;9654;52.302;8.120;2024-01-30T07:33:32;8.10;99.90
19044;DHT22;9654;52.302;8.120;2024-01-30T07:35:59;8.10;99.90
19044;DHT22;9654;52.302;8.120;2024-01-30T07:38:26;8.10;99.90
19044;DHT22;9654;52.302;8.120;2024-01-30T07:40:52;8.10;99.90
19044;DHT22;9654;52.302;8.120;2024-01-30T07:43:19;8.10;99.90
19044;DHT22;9654;52.302;8.120;2024-01-30T07:45:46;8.20;99.90
19044;DHT22;9654;52.302;8.120;2024-01-30T07:48:15;8.20;99.90
19044;DHT22;9654;52.302;8.120;2024-01-30T07:50:42;8.20;99.90
19044;DHT22;9654;52.302;8.120;2024-01-30T07:53:08;8.20;99.90
19044;DHT22;9654;52.302;8.120;2024-01-30T07:55:35;8.20;99.90
19044;DHT22;9654;52.302;8.120;2024-01-30T07:58:02;8.20;99.90
19044;DHT22;9654;52.302;8.120;2024-01-30T08:00:30;8.30;99.90
19044;DHT22;9654;52.302;8.120;2024-01-30T08:02:57;8.30;99.90
19044;DHT22;9654;52.302;8.120;2024-01-30T08:05:25;8.30;99.90
19044;DHT22;9654;52.302;8.120;2024-01-30T08:07:52;8.30;99.90
19044;DHT22;9654;52.302;8.120;2024-01-30T08:10:19;8.30;99.90
19044;DHT22;9654;52.302;8.120;2024-01-30T08:12:46;8.40;99.90
19044;DHT22;9654;52.302;8.120;2024-01-30T08:15:13;8.40;99.90
19044;DHT22;9654;52.302;8.120;2024-01-30T08:17:40;8.40;99.90
19044;DHT22;9654;52.302;8.120;2024-01-30T08:20:08;8.40;99.90
19044;DHT22;9654;52.302;8.120;2024-01-30T08:22:38;8.50;99.90
19044;DHT22;9654;52.302;8.120;2024-01-30T08:25:06;8.50;99.90
19044;DHT22;9654;52.302;8.120;2024-01-30T08:27:33;8.50;99.90
19044;DHT22;9654;52.302;8.120;2024-01-30T08:30:01;8.50;99.90
19044;DHT22;9654;52.302;8.120;2024-01-30T08:32:28;8.60;99.90
19044;DHT22;9654;52.302;8.120;2024-01-30T08:34:58;8.60;99.90
19044;DHT22;9654;52.302;8.120;2024-01-30T08:37:25;8.60;99.90
19044;DHT22;9654;52.302;8.120;2024-01-30T08:39:53;8.70;99.90
19044;DHT22;9654;52.302;8.120;2024-01-30T08:42:20;8.80;99.90
19044;DHT22;9654;52.302;8.120;2024-01-30T08:44:48;8.90;99.90
19044;DHT22;9654;52.302;8.120;2024-01-30T08:47:17;9.00;99.90
19044;DHT22;9654;52.302;8.120;2024-01-30T08:49:44;9.10;99.90
19044;DHT22;9654;52.302;8.120;2024-01-30T08:52:10;9.20;99.90
19044;DHT22;9654;52.302;8.120;2024-01-30T08:54:37;9.30;99.90
19044;DHT22;9654;52.302;8.120;2024-01-30T08:57:06;9.40;99.90
19044;DHT22;9654;52.302;8.120;2024-01-30T08:59:32;9.40;99.90
19044;DHT22;9654;52.302;8.120;2024-01-30T09:02:00;9.50;99.90
19044;DHT22;9654;52.302;8.120;2024-01-30T09:04:27;9.50;99.90
19044;DHT22;9654;52.302;8.120;2024-01-30T09:06:54;9.60;99.90
19044;DHT22;9654;52.302;8.120;2024-01-30T09:09:21;9.60;99.90
19044;DHT22;9654;52.302;8.120;2024-01-30T09:11:47;9.70;99.90
19044;DHT22;9654;52.302;8.120;2024-01-30T09:14:16;9.70;99.90
19044;DHT22;9654;52.302;8.120;2024-01-30T09:16:42;9.80;99.90
19044;DHT22;9654;52.302;8.120;2024-01-30T09:19:09;9.90;99.90
19044;DHT22;9654;52.302;8.120;2024-01-30T09:21:36;9.90;99.90
19044;DHT22;9654;52.302;8.120;2024-01-30T09:24:04;10.00;99.90
19044;DHT22;9654;52.302;8.120;2024-01-30T09:26:31;10.00;99.90
19044;DHT22;9654;52.302;8.120;2024-01-30T09:28:58;10.00;99.90
19044;DHT22;9654;52.302;8.120;2024-01-30T09:31:26;10.10;99.90
19044;DHT22;9654;52.302;8.120;2024-01-30T09:33:54;10.20;99.90
19044;DHT22;9654;52.302;8.120;2024-01-30T09:36:21;10.30;99.90
19044;DHT22;9654;52.302;8.120;2024-01-30T09:38:48;10.30;99.90
19044;DHT22;9654;52.302;8.120;2024-01-30T09:41:15;10.40;99.90
19044;DHT22;9654;52.302;8.120;2024-01-30T09:43:48;10.40;99.90
19044;DHT22;9654;52.302;8.120;2024-01-30T09:46:17;10.40;99.90
19044;DHT22;9654;52.302;8.120;2024-01-30T09:48:46;10.50;99.90
19044;DHT22;9654;52.302;8.120;2024-01-30T09:51:15;10.50;99.90
19044;DHT22;9654;52.302;8.120;2024-01-30T09:53:42;10.50;99.90
19044;DHT22;9654;52.302;8.120;2024-01-30T09:56:10;10.50;99.90
19044;DHT22;9654;52.302;8.120;2024-01-30T09:58:37;10.60;99.90
19044;DHT22;9654;52.302;8.120;2024-01-30T10:01:05;10.60;99.90
19044;DHT22;9654;52.302;8.120;2024-01-30T10:03:32;10.60;99.90
19044;DHT22;9654;52.302;8.120;2024-01-30T10:06:01;10.70;99.90
19044;DHT22;9654;52.302;8.120;2024-01-30T10:08:28;10.70;92.80
19044;DHT22;9654;52.302;8.120;2024-01-30T10:10:55;10.70;53.30
19044;DHT22;9654;52.302;8.120;2024-01-30T10:13:22;10.80;37.90
19044;DHT22;9654;52.302;8.120;2024-01-30T10:15:49;10.80;22.70
19044;DHT22;9654;52.302;8.120;2024-01-30T10:18:17;10.80;6.90
19044;DHT22;9654;52.302;8.120;2024-01-30T10:20:45;10.90;1.00
19044;DHT22;9654;52.302;8.120;2024-01-30T10:23:14;10.90;1.00
19044;DHT22;9654;52.302;8.120;2024-01-30T10:25:41;10.90;1.00
19044;DHT22;9654;52.302;8.120;2024-01-30T10:28:07;11.00;1.00
19044;DHT22;9654;52.302;8.120;2024-01-30T10:30:34;10.90;1.00
19044;DHT22;9654;52.302;8.120;2024-01-30T10:33:02;10.90;1.00
19044;DHT22;9654;52.302;8.120;2024-01-30T10:35:29;10.90;1.00
19044;DHT22;9654;52.302;8.120;2024-01-30T10:37:57;11.00;1.00
19044;DHT22;9654;52.302;8.120;2024-01-30T10:40:28;11.00;1.00
19044;DHT22;9654;52.302;8.120;2024-01-30T10:42:56;11.00;1.00
19044;DHT22;9654;52.302;8.120;2024-01-30T10:45:23;11.00;1.00
19044;DHT22;9654;52.302;8.120;2024-01-30T10:47:55;11.00;1.00
19044;DHT22;9654;52.302;8.120;2024-01-30T10:50:24;11.00;1.00
19044;DHT22;9654;52.302;8.120;2024-01-30T10:52:52;11.10;1.00
19044;DHT22;9654;52.302;8.120;2024-01-30T10:55:21;11.00;1.00
19044;DHT22;9654;52.302;8.120;2024-01-30T10:57:50;11.00;1.00
19044;DHT22;9654;52.302;8.120;2024-01-30T11:00:19;11.00;1.00
19044;DHT22;9654;52.302;8.120;2024-01-30T11:02:49;11.00;1.00
19044;DHT22;9654;52.302;8.120;2024-01-30T11:05:23;11.00;1.00
19044;DHT22;9654;52.302;8.120;2024-01-30T11:07:50;11.00;1.00
19044;DHT22;9654;52.302;8.120;2024-01-30T11:10:17;11.00;1.00
19044;DHT22;9654;52.302;8.120;2024-01-30T11:12:46;11.00;1.00
19044;DHT22;9654;52.302;8.120;2024-01-30T11:15:15;10.90;1.00
19044;DHT22;9654;52.302;8.120;2024-01-30T11:17:44;11.00;1.00
19044;DHT22;9654;52.302;8.120;2024-01-30T11:20:11;11.00;1.00
19044;DHT22;9654;52.302;8.120;2024-01-30T11:22:42;10.90;3.90
19044;DHT22;9654;52.302;8.120;2024-01-30T11:25:11;10.90;4.30
19044;DHT22;9654;52.302;8.120;2024-01-30T11:27:38;10.90;1.00
19044;DHT22;9654;52.302;8.120;2024-01-30T11:30:07;10.90;2.20
19044;DHT22;9654;52.302;8.120;2024-01-30T11:32:36;10.90;1.00
19044;DHT22;9654;52.302;8.120;2024-01-30T11:35:04;11.00;6.00
19044;DHT22;9654;52.302;8.120;2024-01-30T11:37:32;11.00;4.00
19044;DHT22;9654;52.302;8.120;2024-01-30T11:40:04;11.00;1.00
19044;DHT22;9654;52.302;8.120;2024-01-30T11:42:32;11.00;1.00
19044;DHT22;9654;52.302;8.120;2024-01-30T11:45:00;11.00;1.00
19044;DHT22;9654;52.302;8.120;2024-01-30T11:47:28;11.00;1.00
19044;DHT22;9654;52.302;8.120;2024-01-30T11:49:57;11.00;2.10
19044;DHT22;9654;52.302;8.120;2024-01-30T11:52:24;11.00;1.00
19044;DHT22;9654;52.302;8.120;2024-01-30T11:54:51;11.00;1.00
19044;DHT22;9654;52.302;8.120;2024-01-30T11:57:18;11.00;6.20
19044;DHT22;9654;52.302;8.120;2024-01-30T11:59:44;11.00;1.30
19044;DHT22;9654;52.302;8.120;2024-01-30T12:02:15;11.10;1.00
19044;DHT22;9654;52.302;8.120;2024-01-30T12:04:43;11.10;12.20
19044;DHT22;9654;52.302;8.120;2024-01-30T12:07:11;11.20;13.40
19044;DHT22;9654;52.302;8.120;2024-01-30T12:09:38;11.30;10.60
19044;DHT22;9654;52.302;8.120;2024-01-30T12:12:07;11.20;20.60
19044;DHT22;9654;52.302;8.120;2024-01-30T12:14:37;11.30;24.50
19044;DHT22;9654;52.302;8.120;2024-01-30T12:17:05;11.30;18.80
19044;DHT22;9654;52.302;8.120;2024-01-30T12:19:33;11.40;32.20
19044;DHT22;9654;52.302;8.120;2024-01-30T12:22:01;11.40;36.70
19044;DHT22;9654;52.302;8.120;2024-01-30T12:24:29;11.40;38.70
19044;DHT22;9654;52.302;8.120;2024-01-30T12:26:57;11.40;41.60
19044;DHT22;9654;52.302;8.120;2024-01-30T12:29:24;11.40;51.60
19044;DHT22;9654;52.302;8.120;2024-01-30T12:31:53;11.40;56.20
19044;DHT22;9654;52.302;8.120;2024-01-30T12:34:20;11.50;56.00
19044;DHT22;9654;52.302;8.120;2024-01-30T12:36:49;11.60;47.70
19044;DHT22;9654;52.302;8.120;2024-01-30T12:39:16;11.60;44.60
19044;DHT22;9654;52.302;8.120;2024-01-30T12:41:45;11.60;32.50
19044;DHT22;9654;52.302;8.120;2024-01-30T12:44:13;11.60;40.50
19044;DHT22;9654;52.302;8.120;2024-01-30T12:46:40;11.60;43.60
19044;DHT22;9654;52.302;8.120;2024-01-30T12:49:07;11.60;53.50
19044;DHT22;9654;52.302;8.120;2024-01-30T12:51:34;11.60;44.60
19044;DHT22;9654;52.302;8.120;2024-01-30T12:54:05;11.50;49.00
19044;DHT22;9654;52.302;8.120;2024-01-30T12:56:32;11.50;58.00
19044;DHT22;9654;52.302;8.120;2024-01-30T12:59:00;11.50;73.00
19044;DHT22;9654;52.302;8.120;2024-01-30T13:01:27;11.40;88.60
19044;DHT22;9654;52.302;8.120;2024-01-30T13:03:54;11.40;89.00
19044;DHT22;9654;52.302;8.120;2024-01-30T13:06:23;11.40;92.50
19044;DHT22;9654;52.302;8.120;2024-01-30T13:08:49;11.40;95.40
19044;DHT22;9654;52.302;8.120;2024-01-30T13:11:16;11.30;97.70
19044;DHT22;9654;52.302;8.120;2024-01-30T13:13:43;11.30;99.90
19044;DHT22;9654;52.302;8.120;2024-01-30T13:16:12;11.30;99.90
19044;DHT22;9654;52.302;8.120;2024-01-30T13:18:38;11.30;99.90
19044;DHT22;9654;52.302;8.120;2024-01-30T13:21:05;11.30;99.90
19044;DHT22;9654;52.302;8.120;2024-01-30T13:23:32;11.30;99.90
19044;DHT22;9654;52.302;8.120;2024-01-30T13:26:00;11.30;99.90
19044;DHT22;9654;52.302;8.120;2024-01-30T13:28:27;11.30;99.90
19044;DHT22;9654;52.302;8.120;2024-01-30T13:30:54;11.30;99.90
19044;DHT22;9654;52.302;8.120;2024-01-30T13:33:22;11.30;99.90
19044;DHT22;9654;52.302;8.120;2024-01-30T13:35:49;11.30;99.90
19044;DHT22;9654;52.302;8.120;2024-01-30T13:38:16;11.30;99.90
19044;DHT22;9654;52.302;8.120;2024-01-30T13:40:43;11.30;99.90
19044;DHT22;9654;52.302;8.120;2024-01-30T13:43:10;11.30;99.90
19044;DHT22;9654;52.302;8.120;2024-01-30T13:45:36;11.30;99.90
19044;DHT22;9654;52.302;8.120;2024-01-30T13:48:04;11.30;99.90
19044;DHT22;9654;52.302;8.120;2024-01-30T13:50:33;11.30;99.90
19044;DHT22;9654;52.302;8.120;2024-01-30T13:52:59;11.40;99.90
19044;DHT22;9654;52.302;8.120;2024-01-30T13:55:26;11.40;99.90
19044;DHT22;9654;52.302;8.120;2024-01-30T13:57:53;11.40;99.90
19044;DHT22;9654;52.302;8.120;2024-01-30T14:00:21;11.40;99.90
19044;DHT22;9654;52.302;8.120;2024-01-30T14:02:48;11.50;99.90
19044;DHT22;9654;52.302;8.120;2024-01-30T14:05:15;11.50;99.90
19044;DHT22;9654;52.302;8.120;2024-01-30T14:07:44;11.50;99.90
19044;DHT22;9654;52.302;8.120;2024-01-30T14:10:11;11.50;99.90
19044;DHT22;9654;52.302;8.120;2024-01-30T14:12:38;11.50;96.00
19044;DHT22;9654;52.302;8.120;2024-01-30T14:15:07;11.50;96.70
19044;DHT22;9654;52.302;8.120;2024-01-30T14:17:35;11.50;98.00
19044;DHT22;9654;52.302;8.120;2024-01-30T14:20:02;11.50;95.40
19044;DHT22;9654;52.302;8.120;2024-01-30T14:22:30;11.50;99.90
19044;DHT22;9654;52.302;8.120;2024-01-30T14:24:58;11.50;98.00
19044;DHT22;9654;52.302;8.120;2024-01-30T14:27:25;11.50;96.70
19044;DHT22;9654;52.302;8.120;2024-01-30T14:29:52;11.40;98.30
19044;DHT22;9654;52.302;8.120;2024-01-30T14:32:19;11.40;99.90
19044;DHT22;9654;52.302;8.120;2024-01-30T14:34:46;11.40;99.40
19044;DHT22;9654;52.302;8.120;2024-01-30T14:37:13;11.40;99.90
19044;DHT22;9654;52.302;8.120;2024-01-30T14:39:39;11.40;99.90
19044;DHT22;9654;52.302;8.120;2024-01-30T14:42:08;11.40;99.90
19044;DHT22;9654;52.302;8.120;2024-01-30T14:44:35;11.40;99.90
19044;DHT22;9654;52.302;8.120;2024-01-30T14:47:02;11.40;99.90
19044;DHT22;9654;52.302;8.120;2024-01-30T14:49:30;11.40;99.90
19044;DHT22;9654;52.302;8.120;2024-01-30T14:51:57;11.30;99.90
19044;DHT22;9654;52.302;8.120;2024-01-30T14:54:24;11.30;99.90
19044;DHT22;9654;52.302;8.120;2024-01-30T14:56:51;11.30;99.90
19044;DHT22;9654;52.302;8.120;2024-01-30T14:59:19;11.30;99.90
19044;DHT22;9654;52.302;8.120;2024-01-30T15:01:46;11.30;99.90
19044;DHT22;9654;52.302;8.120;2024-01-30T15:04:13;11.30;96.40
19044;DHT22;9654;52.302;8.120;2024-01-30T15:06:40;11.30;91.90
19044;DHT22;9654;52.302;8.120;2024-01-30T15:09:10;11.30;89.90
19044;DHT22;9654;52.302;8.120;2024-01-30T15:11:40;11.40;56.50
19044;DHT22;9654;52.302;8.120;2024-01-30T15:14:07;11.40;31.00
19044;DHT22;9654;52.302;8.120;2024-01-30T15:16:35;11.50;6.50
19044;DHT22;9654;52.302;8.120;2024-01-30T15:19:02;11.40;1.00
19044;DHT22;9654;52.302;8.120;2024-01-30T15:21:30;11.40;1.00
19044;DHT22;9654;52.302;8.120;2024-01-30T15:23:57;11.30;1.00
19044;DHT22;9654;52.302;8.120;2024-01-30T15:26:24;11.30;1.00
19044;DHT22;9654;52.302;8.120;2024-01-30T15:28:51;11.30;1.00
19044;DHT22;9654;52.302;8.120;2024-01-30T15:31:17;11.20;1.00
19044;DHT22;9654;52.302;8.120;2024-01-30T15:33:47;11.20;1.00
19044;DHT22;9654;52.302;8.120;2024-01-30T15:36:14;11.20;1.00
19044;DHT22;9654;52.302;8.120;2024-01-30T15:38:41;11.10;1.00
19044;DHT22;9654;52.302;8.120;2024-01-30T15:41:07;11.10;1.00
19044;DHT22;9654;52.302;8.120;2024-01-30T15:43:34;11.00;1.00
19044;DHT22;9654;52.302;8.120;2024-01-30T15:46:01;11.00;1.00
19044;DHT22;9654;52.302;8.120;2024-01-30T15:48:28;10.90;1.00
19044;DHT22;9654;52.302;8.120;2024-01-30T15:50:57;10.90;1.00
19044;DHT22;9654;52.302;8.120;2024-01-30T15:53:23;10.90;1.00
19044;DHT22;9654;52.302;8.120;2024-01-30T15:55:51;10.80;1.00
19044;DHT22;9654;52.302;8.120;2024-01-30T15:58:18;10.80;1.00